createdAt,value
2023-03-11T00:04:01.761Z,2.53
2023-03-11T00:09:05.350Z,1.25
2023-03-11T00:14:07.581Z,0.98
2023-03-11T00:19:11.300Z,1.27
2023-03-11T00:24:14.126Z,1.08
2023-03-11T00:29:16.271Z,1.08
2023-03-11T00:34:19.307Z,1.42
2023-03-11T00:39:21.519Z,0.70
2023-03-11T00:44:23.848Z,0.98
2023-03-11T00:49:26.054Z,0.88
2023-03-11T00:54:28.538Z,0.88
2023-03-11T00:59:30.683Z,0.82
2023-03-11T01:04:32.818Z,0.90
2023-03-11T01:09:35.090Z,1.10
2023-03-11T01:14:37.219Z,1.13
2023-03-11T01:19:39.430Z,1.08
2023-03-11T01:24:41.668Z,1.40
2023-03-11T01:29:43.839Z,1.80
2023-03-11T01:34:45.961Z,1.50
2023-03-11T01:39:48.164Z,1.50
2023-03-11T01:44:50.410Z,1.30
2023-03-11T01:49:53.012Z,0.90
2023-03-11T01:54:55.196Z,1.23
2023-03-11T02:00:01.788Z,0.68
2023-03-11T02:05:05.264Z,0.93
2023-03-11T02:10:09.007Z,0.88
2023-03-11T02:15:12.788Z,0.80
2023-03-11T02:20:41.039Z,1.20
2023-03-11T02:26:00.705Z,0.90
2023-03-11T02:31:03.871Z,1.00
2023-03-11T02:36:06.467Z,1.00
2023-03-11T02:41:09.093Z,1.05
2023-03-11T02:46:13.161Z,1.42
2023-03-11T02:51:15.906Z,1.00
2023-03-11T02:56:18.027Z,0.93
2023-03-11T03:01:20.260Z,1.00
2023-03-11T03:06:22.611Z,0.75
2023-03-11T03:11:24.888Z,1.10
2023-03-11T03:16:27.128Z,1.20
2023-03-11T03:21:29.351Z,0.90
2023-03-11T03:26:31.548Z,0.70
2023-03-11T03:31:33.726Z,0.65
2023-03-11T03:36:36.006Z,0.70
2023-03-11T03:41:38.837Z,1.00
2023-03-11T03:46:40.939Z,1.00
2023-03-11T03:51:43.111Z,0.88
2023-03-11T03:56:45.237Z,1.08
2023-03-11T04:01:47.387Z,1.05
2023-03-11T04:06:49.917Z,1.00
2023-03-11T04:11:52.096Z,1.17
2023-03-11T04:16:54.332Z,1.40
2023-03-11T04:21:56.774Z,2.00
2023-03-11T04:26:58.857Z,1.50
2023-03-11T04:32:02.672Z,1.17
2023-03-11T04:37:05.012Z,1.10
2023-03-11T04:42:07.371Z,1.60
2023-03-11T04:47:09.893Z,1.27
2023-03-11T04:52:12.755Z,2.67
2023-03-11T04:57:14.928Z,1.25
2023-03-11T05:02:17.065Z,0.85
2023-03-11T05:07:19.266Z,0.70
2023-03-11T05:12:21.379Z,1.23
2023-03-11T05:17:25.157Z,0.73
2023-03-11T05:22:27.725Z,1.02
2023-03-11T05:27:29.913Z,1.38
2023-03-11T05:32:32.171Z,1.13
2023-03-11T05:37:35.667Z,1.40
2023-03-11T05:42:38.352Z,1.30
2023-03-11T05:47:42.608Z,2.42
2023-03-11T05:52:44.895Z,2.13
2023-03-11T05:57:47.027Z,1.63
2023-03-11T06:02:49.260Z,2.90
2023-03-11T06:07:51.467Z,1.10
2023-03-11T06:12:53.565Z,1.30
2023-03-11T06:17:55.742Z,1.83
2023-03-11T06:22:57.978Z,1.30
2023-03-11T06:28:00.121Z,1.30
2023-03-11T06:33:02.472Z,1.00
2023-03-11T06:38:04.734Z,0.85
2023-03-11T06:43:06.926Z,1.35
2023-03-11T06:48:09.088Z,0.90
2023-03-11T06:53:11.512Z,1.05
2023-03-11T06:58:14.493Z,1.10
2023-03-11T07:03:16.750Z,1.40
2023-03-11T07:08:19.833Z,1.92
2023-03-11T07:13:22.072Z,1.20
2023-03-11T07:18:24.329Z,1.30
2023-03-11T07:23:27.342Z,0.93
2023-03-11T07:28:30.318Z,1.15
2023-03-11T07:33:34.264Z,1.05
2023-03-11T07:38:36.931Z,1.40
2023-03-11T07:43:40.514Z,1.02
2023-03-11T07:48:43.166Z,0.98
2023-03-11T07:53:46.389Z,0.57
2023-03-11T07:58:48.672Z,0.75
2023-03-11T08:03:57.574Z,0.73
2023-03-11T08:09:00.959Z,0.87
2023-03-11T08:14:04.457Z,0.68
2023-03-11T08:19:06.707Z,0.50
2023-03-11T08:24:12.273Z,0.30
2023-03-11T08:29:15.285Z,0.20
2023-03-11T08:34:18.481Z,0.40
2023-03-11T08:39:21.623Z,0.60
2023-03-11T08:44:24.412Z,0.73
2023-03-11T08:49:27.481Z,1.00
2023-03-11T08:54:30.862Z,1.02
2023-03-11T08:59:33.380Z,1.25
2023-03-11T09:04:35.550Z,1.00
2023-03-11T09:09:38.346Z,1.67
2023-03-11T09:14:44.357Z,0.50
2023-03-11T09:19:46.713Z,1.65
2023-03-11T09:24:48.974Z,0.77
2023-03-11T09:29:51.209Z,1.15
2023-03-11T09:34:53.397Z,0.95
2023-03-11T09:39:55.589Z,0.70
2023-03-11T09:45:25.229Z,0.80
2023-03-11T09:50:31.376Z,0.98
2023-03-11T09:55:52.693Z,0.80
2023-03-11T10:00:55.754Z,1.20
2023-03-11T10:06:07.104Z,1.23
2023-03-11T10:11:45.225Z,0.90
2023-03-11T10:16:58.277Z,1.20
2023-03-11T10:22:21.327Z,1.40
2023-03-11T10:27:31.562Z,1.10
2023-03-11T10:33:04.432Z,1.10
2023-03-11T10:38:17.339Z,1.25
2023-03-11T10:43:25.379Z,1.25
2023-03-11T10:48:27.853Z,1.40
2023-03-11T10:53:30.658Z,0.80
2023-03-11T10:58:32.855Z,1.20
2023-03-11T11:03:36.423Z,1.60
2023-03-11T11:08:38.626Z,1.20
2023-03-11T11:13:41.206Z,1.25
2023-03-11T11:18:49.525Z,1.40
2023-03-11T11:24:07.254Z,1.95
2023-03-11T11:29:13.233Z,1.40
2023-03-11T11:34:34.204Z,0.82
2023-03-11T11:39:59.326Z,0.98
2023-03-11T11:45:08.338Z,1.10
2023-03-11T11:50:35.774Z,1.25
2023-03-11T11:55:46.934Z,1.00
2023-03-11T12:01:28.579Z,1.10
2023-03-11T12:06:53.194Z,1.35
2023-03-11T12:12:04.316Z,2.70
2023-03-11T12:17:09.037Z,1.25
2023-03-11T12:22:21.604Z,1.50
2023-03-11T12:27:29.136Z,1.25
2023-03-11T12:32:35.265Z,2.83
2023-03-11T12:37:37.820Z,2.75
2023-03-11T12:42:41.418Z,2.03
2023-03-11T12:47:44.119Z,1.52
2023-03-11T12:52:55.607Z,1.23
2023-03-11T12:58:33.252Z,2.05
2023-03-11T13:03:57.238Z,1.17
2023-03-11T13:09:01.102Z,2.55
2023-03-11T13:14:33.171Z,3.92
2023-03-11T13:19:37.968Z,3.55
2023-03-11T13:24:50.123Z,4.43
2023-03-11T13:30:15.474Z,5.35
2023-03-11T13:35:24.936Z,2.70
2023-03-11T13:45:33.065Z,3.17
2023-03-11T13:50:44.774Z,1.52
2023-03-11T13:55:49.029Z,1.42
2023-03-11T14:01:01.141Z,1.40
2023-03-11T14:06:07.198Z,3.65
2023-03-11T14:11:13.117Z,6.15
2023-03-11T14:16:23.882Z,8.75
2023-03-11T14:21:28.727Z,7.22
2023-03-11T14:26:36.199Z,5.45
2023-03-11T14:31:42.054Z,4.78
2023-03-11T14:36:48.727Z,4.28
2023-03-11T14:41:55.949Z,3.00
2023-03-11T14:47:10.568Z,2.58
2023-03-11T14:52:22.011Z,2.00
2023-03-11T14:57:53.955Z,2.63
2023-03-11T15:03:03.597Z,3.08
2023-03-11T15:08:07.767Z,1.80
2023-03-11T15:13:16.966Z,2.13
2023-03-11T15:18:24.953Z,2.38
2023-03-11T15:23:27.961Z,4.22
2023-03-11T15:28:32.814Z,2.08
2023-03-11T15:33:35.355Z,2.83
2023-03-11T15:38:38.023Z,2.70
2023-03-11T15:43:50.511Z,3.05
2023-03-11T15:48:52.727Z,2.30
2023-03-11T15:53:56.506Z,2.92
2023-03-11T15:58:58.667Z,2.25
2023-03-11T16:04:02.144Z,3.78
2023-03-11T16:09:06.289Z,4.75
2023-03-11T16:14:17.892Z,5.15
2023-03-11T16:19:20.127Z,3.92
2023-03-11T16:24:26.754Z,6.88
2023-03-11T16:29:29.880Z,7.32
2023-03-11T16:34:32.067Z,6.22
2023-03-11T16:39:36.106Z,5.90
2023-03-11T16:44:38.322Z,5.22
2023-03-11T16:49:41.248Z,4.53
2023-03-11T16:54:43.385Z,5.60
2023-03-11T16:59:45.845Z,5.25
2023-03-11T17:04:48.255Z,7.45
2023-03-11T17:09:51.802Z,6.60
2023-03-11T17:14:54.623Z,3.58
2023-03-11T17:19:56.936Z,1.70
2023-03-11T17:24:59.166Z,2.58
2023-03-11T17:30:07.573Z,2.50
2023-03-11T17:35:10.265Z,2.28
2023-03-11T17:40:13.802Z,1.83
2023-03-11T17:45:16.071Z,1.83
2023-03-11T17:50:18.634Z,1.50
2023-03-11T17:55:20.874Z,1.20
2023-03-11T18:00:23.213Z,1.33
2023-03-11T18:05:25.381Z,4.57
2023-03-11T18:10:28.651Z,3.90
2023-03-11T18:15:30.802Z,4.40
2023-03-11T18:20:33.068Z,3.60
2023-03-11T18:25:35.187Z,3.30
2023-03-11T18:30:41.025Z,4.10
2023-03-11T18:35:43.163Z,5.43
2023-03-11T18:40:45.455Z,4.80
2023-03-11T18:45:47.617Z,8.68
2023-03-11T18:50:54.423Z,6.00
2023-03-11T18:56:08.392Z,6.07
2023-03-11T19:01:15.661Z,3.75
2023-03-11T19:06:18.448Z,2.35
2023-03-11T19:11:23.301Z,2.50
2023-03-11T19:16:27.378Z,2.55
2023-03-11T19:21:29.853Z,2.65
2023-03-11T19:26:44.271Z,2.78
2023-03-11T19:31:47.711Z,3.13
2023-03-11T19:36:49.962Z,2.88
2023-03-11T19:41:52.629Z,4.18
2023-03-11T19:46:54.944Z,18.10
2023-03-11T19:51:57.672Z,8.07
2023-03-11T19:56:59.815Z,7.38
2023-03-11T20:02:03.323Z,14.07
2023-03-11T20:07:06.323Z,14.07
2023-03-11T20:12:08.664Z,16.38
2023-03-11T20:17:10.917Z,17.70
2023-03-11T20:22:14.357Z,17.65
2023-03-11T20:27:17.795Z,12.75
2023-03-11T20:32:20.064Z,3.97
2023-03-11T20:37:22.280Z,4.40
2023-03-11T20:42:24.694Z,3.63
2023-03-11T20:47:27.014Z,4.45
2023-03-11T20:52:34.646Z,5.53
2023-03-11T20:57:37.629Z,14.30
2023-03-11T21:02:41.944Z,8.02
2023-03-11T21:07:44.337Z,8.27
2023-03-11T21:12:46.566Z,9.90
2023-03-11T21:17:48.860Z,10.23
2023-03-11T21:22:51.147Z,10.05
2023-03-11T21:27:53.321Z,10.23
2023-03-11T21:32:55.785Z,10.45
2023-03-11T21:37:58.210Z,11.18
2023-03-11T21:43:02.146Z,9.32
2023-03-11T21:48:07.169Z,6.40
2023-03-11T21:53:09.477Z,5.25
2023-03-11T21:58:11.831Z,4.60
2023-03-11T22:03:14.513Z,10.23
2023-03-11T22:08:17.452Z,11.05
2023-03-11T22:13:20.062Z,10.98
2023-03-11T22:18:22.614Z,3.80
2023-03-11T22:23:25.813Z,2.38
2023-03-11T22:28:47.513Z,3.10
2023-03-11T22:33:49.792Z,3.42
2023-03-11T22:38:52.056Z,2.08
2023-03-11T22:43:54.386Z,1.65
2023-03-11T22:48:56.683Z,2.00
2023-03-11T22:53:58.854Z,1.60
2023-03-11T22:59:01.226Z,1.67
2023-03-11T23:04:04.378Z,1.90
2023-03-11T23:09:06.706Z,1.80
2023-03-11T23:14:08.828Z,1.58
2023-03-11T23:19:11.781Z,2.00
2023-03-11T23:24:13.973Z,1.85
2023-03-11T23:29:16.225Z,1.75
2023-03-11T23:34:18.398Z,2.80
2023-03-11T23:39:21.336Z,3.22
2023-03-11T23:44:25.743Z,5.97
2023-03-11T23:49:28.345Z,6.93
2023-03-11T23:54:30.490Z,2.38
2023-03-11T23:59:33.235Z,2.20
